• Join FlightAware (Why Join?)
  • Login
  • US Flag 
11:53PM EDT


 

Airport Tracker/Info


-or-


 

Live Flight TrackerFlight Track Log ✈ SKW7367 ✈ 17-Apr-2014 ✈ KDTW - KAPN

Flight Track Log - Related Links

Times and Time Zones

All times are in EDT time to prevent confusion due to time zone crossing. See the SKW7367 flight status page for this flight to view local times or setup timezone preferences in your user account.

Time Position Orientation Groundspeed Altitude Reporting Facility
EDT Latitude Longitude Course Direction KTS MPH feet Rate Location/Type
03:59PM 42.2081 -83.3675 North 150 173 1,300  Level Cleveland Center
04:00PM 42.1867 -83.4011 229° Southwest 179 206 2,800 2,280 Climbing Cleveland Center
04:01PM 42.1506 -83.4606 231° Southwest 245 282 5,100 2,820 Climbing Cleveland Center
04:02PM 42.4701 -83.3500 North  Level FlightAware Approximate
04:02PM 42.1189 -83.5372 241° Southwest 245 282 8,600  Level Cleveland Center
04:03PM 42.5602 -83.3500 North  Level FlightAware Approximate
04:03PM 42.1808 -83.6106 319° Northwest 288 331 10,000  Level Cleveland Center
04:04PM 42.6502 -83.3500 North  Level FlightAware Approximate
04:04PM 42.2603 -83.6600 335° Northwest 310 357 12,000  Level Cleveland Center
04:05PM 42.3517 -83.6219 17° North 333 383 14,200 1,440 Climbing Cleveland Center
04:06PM 42.4519 -83.5781 18° North 371 427 15,000 360 Climbing Cleveland Center
04:07PM 42.5572 -83.5297 19° North 396 456 15,000  Level Cleveland Center
04:08PM 42.6619 -83.5067 North 391 450 15,000  Level Cleveland Center
04:09PM 42.7667 -83.5086 359° North 382 440 15,000  Level Cleveland Center
04:10PM 42.8711 -83.5106 359° North 380 437 15,000  Level Cleveland Center
04:11PM 42.9944 -83.5139 359° North 374 430 15,000  Level Cleveland Center
04:12PM 43.0983 -83.5158 359° North 372 428 15,000  Level Cleveland Center
04:13PM 43.2003 -83.5178 359° North 372 428 15,000  Level Cleveland Center
04:14PM 43.3028 -83.5181 360° North 372 428 15,000  Level Cleveland Center
04:15PM 43.4069 -83.5222 358° North 372 428 15,000  Level Cleveland Center
04:16PM 43.5114 -83.5253 359° North 372 428 15,000  Level Cleveland Center
04:17PM 43.6339 -83.5286 359° North 372 428 15,000  Level Cleveland Center
04:18PM 43.7342 -83.5308 359° North 366 421 15,000  Level Cleveland Center
04:19PM 43.8328 -83.5339 359° North 362 417 15,000  Level Cleveland Center
04:20PM 43.9328 -83.5347 360° North 361 415 15,000  Level Cleveland Center
04:21PM 44.0536 -83.5367 359° North 360 414 15,000  Level Minneapolis Center
04:23PM 44.1511 -83.5389 359° North 358 412 15,000  Level Minneapolis Center
04:24PM 44.2567 -83.5425 359° North 357 411 15,000 -60 Level Minneapolis Center
04:25PM 44.3539 -83.5439 359° North 355 409 14,900 -1,080 Descending Minneapolis Center
04:26PM 44.4564 -83.5461 359° North 345 397 12,800 -2,040 Descending Minneapolis Center
04:27PM 44.5478 -83.5508 358° North 338 389 10,800 -1,740 Descending Minneapolis Center
04:28PM 44.6414 -83.5519 360° North 314 361 9,200 -1,860 Descending Minneapolis Center
04:29PM 44.7306 -83.5531 359° North 299 344 7,000 -1,440 Descending Minneapolis Center
04:30PM 44.8114 -83.5586 357° North 298 343 6,300 -780 Descending Minneapolis Center
04:31PM 44.8975 -83.5789 351° North 298 343 5,400 -1,140 Descending Minneapolis Center
04:32PM 44.9681 -83.6139 341° North 277 319 4,000 -1,080 Descending Minneapolis Center
04:33PM 45.0367 -83.6494 340° North 248 285 3,200 -360 Descending Minneapolis Center
04:34PM 45.1019 -83.6608 353° North 240 276 3,300 -240 Climbing Minneapolis Center
04:35PM 45.1547 -83.6472 10° North 202 232 2,800 -540 Descending Minneapolis Center
04:36PM 45.1594 -83.5828 84° East 154 177 2,300 -600 Descending Minneapolis Center
04:37PM 45.1314 -83.5611 151° Southeast 124 143 1,600 -720 Descending Minneapolis Center
04:38PM 45.0939 -83.5614 180° South 122 140 800 -480 Descending Minneapolis Center
04:39PM 45.0561 -83.5617 180° South 126 145 700 -120 Descending Minneapolis Center